Time,TemperatureF,DewpointF,PressureIn,WindDirection,WindDirectionDegrees,WindSpeedMPH,WindSpeedGustMPH,Humidity,HourlyPrecipIn,Conditions,Clouds,dailyrainin,SoftwareType,DateUTC
2013-02-23 00:13:00,26.1,24.0,29.87,South,187,2.0,5.0,92,0.00,,,0.00,weatherlink.com 1.10,2013-02-23 06:13:00,
2013-02-23 00:28:00,26.1,24.0,29.87,South,187,2.0,4.0,92,0.00,,,0.00,weatherlink.com 1.10,2013-02-23 06:28:00,
2013-02-23 00:43:00,26.0,24.0,29.87,South,187,1.0,5.0,92,0.00,,,0.00,weatherlink.com 1.10,2013-02-23 06:43:00,
2013-02-23 00:58:00,25.8,24.0,29.87,South,187,0.0,4.0,92,0.00,,,0.00,weatherlink.com 1.10,2013-02-23 06:58:00,
2013-02-23 01:13:00,25.8,24.0,29.87,South,187,1.0,5.0,92,0.00,,,0.00,weatherlink.com 1.10,2013-02-23 07:13:00,
2013-02-23 01:28:00,25.8,24.0,29.87,South,187,1.0,4.0,91,0.01,,,0.01,weatherlink.com 1.10,2013-02-23 07:28:00,
2013-02-23 01:43:00,25.7,24.0,29.87,South,187,4.0,6.0,91,0.01,,,0.01,weatherlink.com 1.10,2013-02-23 07:43:00,
2013-02-23 01:58:00,25.6,23.0,29.87,South,187,0.0,4.0,91,0.01,,,0.01,weatherlink.com 1.10,2013-02-23 07:58:00,
2013-02-23 02:13:00,25.4,23.0,29.87,South,187,0.0,4.0,91,0.01,,,0.01,weatherlink.com 1.10,2013-02-23 08:13:00,
2013-02-23 02:28:00,25.3,23.0,29.87,South,187,1.0,5.0,91,0.00,,,0.01,weatherlink.com 1.10,2013-02-23 08:28:00,
2013-02-23 02:43:00,25.2,23.0,29.87,South,187,2.0,5.0,91,0.00,,,0.01,weatherlink.com 1.10,2013-02-23 08:43:00,
2013-02-23 02:58:00,25.0,23.0,29.86,South,187,2.0,6.0,91,0.00,,,0.01,weatherlink.com 1.10,2013-02-23 08:58:00,
2013-02-23 03:13:00,24.9,23.0,29.87,South,187,1.0,5.0,91,0.00,,,0.01,weatherlink.com 1.10,2013-02-23 09:13:00,
2013-02-23 03:28:00,24.7,22.0,29.87,South,187,1.0,6.0,90,0.00,,,0.01,weatherlink.com 1.10,2013-02-23 09:28:00,
2013-02-23 03:43:00,24.6,22.0,29.87,South,187,3.0,5.0,90,0.00,,,0.01,weatherlink.com 1.10,2013-02-23 09:43:00,
2013-02-23 03:58:00,24.4,22.0,29.87,South,187,0.0,4.0,89,0.00,,,0.01,weatherlink.com 1.10,2013-02-23 09:58:00,
2013-02-23 04:13:00,24.3,22.0,29.88,South,187,1.0,6.0,89,0.00,,,0.01,weatherlink.com 1.10,2013-02-23 10:13:00,
2013-02-23 04:28:00,24.0,21.0,29.88,South,187,3.0,5.0,89,0.00,,,0.01,weatherlink.com 1.10,2013-02-23 10:28:00,
2013-02-23 04:43:00,23.7,21.0,29.88,South,187,2.0,6.0,89,0.00,,,0.01,weatherlink.com 1.10,2013-02-23 10:43:00,
2013-02-23 04:58:00,23.5,21.0,29.87,South,187,0.0,4.0,89,0.00,,,0.01,weatherlink.com 1.10,2013-02-23 10:58:00,
2013-02-23 05:13:00,23.4,21.0,29.88,South,187,1.0,4.0,90,0.00,,,0.01,weatherlink.com 1.10,2013-02-23 11:13:00,
2013-02-23 05:28:00,23.2,21.0,29.88,South,187,2.0,5.0,89,0.00,,,0.01,weatherlink.com 1.10,2013-02-23 11:28:00,
2013-02-23 05:43:00,23.1,20.0,29.89,South,187,3.0,3.0,89,0.00,,,0.01,weatherlink.com 1.10,2013-02-23 11:43:00,
2013-02-23 05:58:00,23.0,21.0,29.89,South,187,0.0,5.0,90,0.00,,,0.01,weatherlink.com 1.10,2013-02-23 11:58:00,
2013-02-23 06:13:00,22.9,20.0,29.89,South,187,1.0,4.0,90,0.00,,,0.01,weatherlink.com 1.10,2013-02-23 12:13:00,
2013-02-23 06:28:00,22.8,20.0,29.90,South,187,5.0,9.0,90,0.00,,,0.01,weatherlink.com 1.10,2013-02-23 12:28:00,
2013-02-23 06:43:00,22.7,20.0,29.90,South,187,2.0,7.0,90,0.00,,,0.01,weatherlink.com 1.10,2013-02-23 12:43:00,
2013-02-23 06:59:00,22.6,20.0,29.90,South,187,6.0,6.0,90,0.00,,,0.01,weatherlink.com 1.10,2013-02-23 12:59:00,
2013-02-23 07:14:00,22.5,20.0,29.90,South,187,4.0,4.0,91,0.00,,,0.01,weatherlink.com 1.10,2013-02-23 13:14:00,
2013-02-23 07:29:00,22.3,20.0,29.90,South,187,4.0,7.0,90,0.00,,,0.01,weatherlink.com 1.10,2013-02-23 13:29:00,
2013-02-23 07:44:00,22.3,20.0,29.90,South,187,2.0,6.0,90,0.00,,,0.01,weatherlink.com 1.10,2013-02-23 13:44:00,
2013-02-23 07:59:00,22.5,20.0,29.90,South,187,2.0,4.0,90,0.00,,,0.01,weatherlink.com 1.10,2013-02-23 13:59:00,
2013-02-23 08:14:00,22.6,20.0,29.90,South,187,1.0,5.0,90,0.00,,,0.01,weatherlink.com 1.10,2013-02-23 14:14:00,
2013-02-23 08:29:00,22.8,20.0,29.90,South,187,3.0,5.0,89,0.00,,,0.01,weatherlink.com 1.10,2013-02-23 14:29:00,
2013-02-23 08:44:00,23.0,20.0,29.90,South,187,2.0,7.0,89,0.00,,,0.01,weatherlink.com 1.10,2013-02-23 14:44:00,
2013-02-23 08:59:00,23.3,20.0,29.90,South,187,4.0,6.0,88,0.00,,,0.01,weatherlink.com 1.10,2013-02-23 14:59:00,
2013-02-23 09:14:00,23.7,21.0,29.90,South,187,2.0,4.0,88,0.00,,,0.01,weatherlink.com 1.10,2013-02-23 15:14:00,
2013-02-23 09:29:00,23.6,20.0,29.90,South,187,1.0,7.0,87,0.00,,,0.01,weatherlink.com 1.10,2013-02-23 15:29:00,
2013-02-23 09:44:00,23.9,21.0,29.90,South,187,2.0,8.0,87,0.00,,,0.01,weatherlink.com 1.10,2013-02-23 15:44:00,
2013-02-23 09:59:00,24.1,21.0,29.90,South,187,3.0,7.0,87,0.00,,,0.01,weatherlink.com 1.10,2013-02-23 15:59:00,
2013-02-23 10:14:00,24.7,21.0,29.91,South,187,1.0,7.0,87,0.00,,,0.01,weatherlink.com 1.10,2013-02-23 16:14:00,
2013-02-23 10:29:00,24.9,21.0,29.91,South,187,2.0,6.0,86,0.00,,,0.01,weatherlink.com 1.10,2013-02-23 16:29:00,
2013-02-23 10:44:00,25.1,22.0,29.91,South,187,1.0,5.0,86,0.00,,,0.01,weatherlink.com 1.10,2013-02-23 16:44:00,
2013-02-23 10:59:00,25.5,22.0,29.91,South,188,3.0,5.0,85,0.00,,,0.01,weatherlink.com 1.10,2013-02-23 16:59:00,
2013-02-23 11:14:00,25.8,22.0,29.91,SSW,199,5.0,6.0,84,0.00,,,0.01,weatherlink.com 1.10,2013-02-23 17:14:00,
2013-02-23 11:29:00,26.3,22.0,29.91,SSW,199,2.0,5.0,84,0.00,,,0.01,weatherlink.com 1.10,2013-02-23 17:29:00,
2013-02-23 11:44:00,26.5,22.0,29.91,SSW,199,3.0,7.0,83,0.00,,,0.01,weatherlink.com 1.10,2013-02-23 17:44:00,
2013-02-23 11:59:00,26.2,22.0,29.91,SSW,199,4.0,6.0,83,0.00,,,0.01,weatherlink.com 1.10,2013-02-23 17:59:00,
2013-02-23 12:14:00,26.0,21.0,29.91,SSW,199,0.0,7.0,82,0.00,,,0.01,weatherlink.com 1.10,2013-02-23 18:14:00,
2013-02-23 12:29:00,26.4,22.0,29.90,SSW,199,4.0,6.0,82,0.00,,,0.01,weatherlink.com 1.10,2013-02-23 18:29:00,
2013-02-23 12:44:00,26.9,22.0,29.90,SSW,209,4.0,6.0,81,0.00,,,0.01,weatherlink.com 1.10,2013-02-23 18:44:00,
2013-02-23 12:59:00,27.0,22.0,29.90,SSW,209,1.0,5.0,81,0.00,,,0.01,weatherlink.com 1.10,2013-02-23 18:59:00,
2013-02-23 13:14:00,27.5,22.0,29.90,SSW,209,2.0,6.0,81,0.00,,,0.01,weatherlink.com 1.10,2013-02-23 19:14:00,
2013-02-23 13:29:00,27.9,22.0,29.89,SW,227,0.0,5.0,79,0.00,,,0.01,weatherlink.com 1.10,2013-02-23 19:29:00,
2013-02-23 13:44:00,27.6,22.0,29.89,SSW,198,4.0,6.0,79,0.00,,,0.01,weatherlink.com 1.10,2013-02-23 19:44:00,
2013-02-23 13:59:00,27.6,22.0,29.89,SSW,213,2.0,6.0,78,0.00,,,0.01,weatherlink.com 1.10,2013-02-23 19:59:00,
2013-02-23 14:14:00,28.0,21.0,29.89,SSW,213,4.0,7.0,76,0.00,,,0.01,weatherlink.com 1.10,2013-02-23 20:14:00,
2013-02-23 14:29:00,27.0,21.0,29.90,SSW,213,5.0,7.0,77,0.00,,,0.01,weatherlink.com 1.10,2013-02-23 20:29:00,
2013-02-23 14:44:00,26.8,21.0,29.90,SSW,213,2.0,6.0,77,0.00,,,0.01,weatherlink.com 1.10,2013-02-23 20:44:00,
2013-02-23 14:59:00,26.9,21.0,29.90,SSW,213,2.0,7.0,77,0.00,,,0.01,weatherlink.com 1.10,2013-02-23 20:59:00,
2013-02-23 15:14:00,28.0,21.0,29.90,SSW,213,2.0,7.0,74,0.00,,,0.01,weatherlink.com 1.10,2013-02-23 21:14:00,
2013-02-23 15:29:00,27.3,20.0,29.90,SSW,213,3.0,6.0,75,0.00,,,0.01,weatherlink.com 1.10,2013-02-23 21:29:00,
2013-02-23 15:44:00,26.7,20.0,29.91,SSW,213,5.0,5.0,77,0.00,,,0.01,weatherlink.com 1.10,2013-02-23 21:44:00,
2013-02-23 15:59:00,26.8,20.0,29.91,SSW,213,4.0,6.0,76,0.00,,,0.01,weatherlink.com 1.10,2013-02-23 21:59:00,
2013-02-23 16:14:00,27.3,21.0,29.91,SSW,213,0.0,4.0,76,0.00,,,0.01,weatherlink.com 1.10,2013-02-23 22:14:00,
2013-02-23 16:29:00,26.6,20.0,29.91,SSW,213,1.0,6.0,76,0.00,,,0.01,weatherlink.com 1.10,2013-02-23 22:29:00,
2013-02-23 16:44:00,26.1,20.0,29.91,SSW,213,1.0,5.0,76,0.00,,,0.01,weatherlink.com 1.10,2013-02-23 22:44:00,
2013-02-23 16:59:00,25.6,20.0,29.91,SSW,213,0.0,4.0,78,0.00,,,0.01,weatherlink.com 1.10,2013-02-23 22:59:00,
2013-02-23 17:14:00,25.3,19.0,29.91,SSW,213,2.0,5.0,78,0.00,,,0.01,weatherlink.com 1.10,2013-02-23 23:14:00,
2013-02-23 17:29:00,25.2,20.0,29.92,SSW,213,3.0,4.0,79,0.00,,,0.01,weatherlink.com 1.10,2013-02-23 23:29:00,
2013-02-23 17:44:00,24.8,19.0,29.92,SSW,213,0.0,3.0,79,0.00,,,0.01,weatherlink.com 1.10,2013-02-23 23:44:00,
2013-02-23 17:59:00,24.3,19.0,29.93,SSW,213,0.0,2.0,79,0.00,,,0.01,weatherlink.com 1.10,2013-02-23 23:59:00,
2013-02-23 18:14:00,23.9,19.0,29.94,SSW,213,1.0,2.0,80,0.00,,,0.01,weatherlink.com 1.10,2013-02-24 00:14:00,
2013-02-23 18:29:00,24.0,19.0,29.94,SSW,213,0.0,4.0,81,0.00,,,0.01,weatherlink.com 1.10,2013-02-24 00:29:00,
2013-02-23 18:44:00,24.2,19.0,29.94,SSW,213,0.0,4.0,80,0.00,,,0.01,weatherlink.com 1.10,2013-02-24 00:44:00,
2013-02-23 18:59:00,24.2,19.0,29.94,SSW,213,1.0,3.0,80,0.00,,,0.01,weatherlink.com 1.10,2013-02-24 00:59:00,
2013-02-23 19:14:00,24.0,19.0,29.94,SSW,213,1.0,4.0,81,0.00,,,0.01,weatherlink.com 1.10,2013-02-24 01:14:00,
2013-02-23 19:29:00,23.7,19.0,29.95,SSW,213,2.0,3.0,81,0.00,,,0.01,weatherlink.com 1.10,2013-02-24 01:29:00,
2013-02-23 19:44:00,23.3,18.0,29.95,SSW,213,0.0,2.0,81,0.00,,,0.01,weatherlink.com 1.10,2013-02-24 01:44:00,
2013-02-23 19:59:00,22.8,18.0,29.95,SSW,213,1.0,2.0,82,0.00,,,0.01,weatherlink.com 1.10,2013-02-24 01:59:00,
2013-02-23 20:14:00,22.2,18.0,29.95,SSW,213,0.0,3.0,83,0.00,,,0.01,weatherlink.com 1.10,2013-02-24 02:14:00,
2013-02-23 20:29:00,21.8,17.0,29.95,SSW,213,1.0,2.0,83,0.00,,,0.01,weatherlink.com 1.10,2013-02-24 02:29:00,
2013-02-23 20:45:00,21.6,18.0,29.95,SSW,213,0.0,3.0,84,0.00,,,0.01,weatherlink.com 1.10,2013-02-24 02:45:00,
2013-02-23 21:00:00,21.5,17.0,29.95,SSW,213,1.0,4.0,84,0.00,,,0.01,weatherlink.com 1.10,2013-02-24 03:00:00,
2013-02-23 21:15:00,21.2,17.0,29.95,SSW,213,2.0,3.0,84,0.00,,,0.01,weatherlink.com 1.10,2013-02-24 03:15:00,
2013-02-23 21:30:00,21.0,17.0,29.95,SSW,213,2.0,3.0,84,0.00,,,0.01,weatherlink.com 1.10,2013-02-24 03:30:00,
2013-02-23 21:45:00,20.8,17.0,29.95,SSW,213,0.0,3.0,84,0.00,,,0.01,weatherlink.com 1.10,2013-02-24 03:45:00,
2013-02-23 22:00:00,20.5,16.0,29.95,SSW,213,0.0,2.0,84,0.00,,,0.01,weatherlink.com 1.10,2013-02-24 04:00:00,
2013-02-23 22:15:00,20.0,17.0,29.95,SSW,213,0.0,1.0,86,0.00,,,0.01,weatherlink.com 1.10,2013-02-24 04:15:00,
2013-02-23 22:30:00,19.5,16.0,29.95,SSW,213,0.0,1.0,86,0.00,,,0.01,weatherlink.com 1.10,2013-02-24 04:30:00,
2013-02-23 22:45:00,19.2,16.0,29.95,SSW,213,0.0,1.0,87,0.00,,,0.01,weatherlink.com 1.10,2013-02-24 04:45:00,
2013-02-23 23:00:00,19.0,16.0,29.95,SSW,213,0.0,1.0,87,0.00,,,0.01,weatherlink.com 1.10,2013-02-24 05:00:00,
2013-02-23 23:15:00,19.0,16.0,29.95,SSW,213,0.0,0.0,88,0.00,,,0.01,weatherlink.com 1.10,2013-02-24 05:15:00,
2013-02-23 23:30:00,19.1,16.0,29.96,SSW,213,0.0,1.0,89,0.00,,,0.01,weatherlink.com 1.10,2013-02-24 05:30:00,
2013-02-23 23:45:00,19.4,16.0,29.96,SSW,213,0.0,1.0,88,0.00,,,0.01,weatherlink.com 1.10,2013-02-24 05:45:00,